63,280€
-1,86%
Echtzeit-Aktienkurs Cytokinetics
Bid:
Ask:
Aktienkurse zur Cytokinetics Aktie
| Datum | Erster | Hoch | Tief | Schluss | Tagesperformance | Volumen |
|---|---|---|---|---|---|---|
| 07.05.2026 | 64,70 | 64,70 | 62,80 | 63,54 | -1,46% | 870,00 |
| 06.05.2026 | 64,38 | 66,32 | 62,44 | 64,48 | -0,40% | 73,00 |
| 05.05.2026 | 58,00 | 72,68 | 48,56 | 64,74 | 15,98% | 3.260,00 |
| 04.05.2026 | 54,70 | 55,82 | 53,36 | 55,82 | 2,95% | 9,00 |
| 30.04.2026 | 54,22 | 54,22 | 54,22 | 54,22 | 5,82% | 2,00 |
| 29.04.2026 | 50,92 | 51,24 | 50,92 | 51,24 | -3,58% | 666,00 |
| 28.04.2026 | 53,70 | 53,70 | 53,14 | 53,14 | 1,22% | 220,00 |
| 27.04.2026 | 54,92 | 55,96 | 52,50 | 52,50 | -5,91% | 2.002,00 |
| 24.04.2026 | 55,99 | 56,28 | 55,42 | 55,80 | 0,11% | - |
| 23.04.2026 | 55,74 | 55,74 | 55,74 | 55,74 | 0,07% | 53,00 |
| 22.04.2026 | 56,94 | 56,94 | 55,70 | 55,70 | -0,57% | 24,00 |
| 21.04.2026 | 56,02 | 56,02 | 56,02 | 56,02 | 0,39% | 50,00 |
| 20.04.2026 | 55,66 | 55,80 | 55,48 | 55,80 | -0,36% | 368,00 |
| 17.04.2026 | 56,00 | 56,00 | 56,00 | 56,00 | 2,08% | 586,00 |
| 16.04.2026 | 54,86 | 54,86 | 54,86 | 54,86 | 0,00% | 10,00 |
| 15.04.2026 | 56,56 | 56,56 | 54,86 | 54,86 | -3,59% | 24,00 |
| 14.04.2026 | 56,90 | 56,90 | 56,90 | 56,90 | 1,28% | 25,00 |
| 13.04.2026 | 55,90 | 56,98 | 55,66 | 56,18 | 2,33% | 617,00 |
| 10.04.2026 | 54,52 | 55,40 | 54,36 | 54,90 | -0,25% | 3.676,00 |
| 09.04.2026 | 55,54 | 55,60 | 55,04 | 55,04 | -3,74% | 3.618,00 |
| 08.04.2026 | 57,92 | 58,23 | 56,52 | 57,18 | -0,07% | - |
| 07.04.2026 | 55,58 | 57,24 | 55,58 | 57,22 | 0,39% | 521,00 |
| 02.04.2026 | 57,00 | 59,00 | 57,00 | 57,00 | -0,87% | 225,00 |
| 01.04.2026 | 58,00 | 58,00 | 56,00 | 57,50 | 0,88% | 271,00 |
| 31.03.2026 | 56,00 | 57,00 | 55,50 | 57,00 | 4,59% | 250,00 |
| 30.03.2026 | 55,50 | 55,50 | 54,50 | 54,50 | 0,93% | 3.008,00 |
| 27.03.2026 | 54,50 | 55,00 | 54,00 | 54,00 | -2,70% | 532,00 |
| 26.03.2026 | 55,50 | 55,50 | 55,50 | 55,50 | 4,72% | 55,00 |
| 25.03.2026 | 53,00 | 53,00 | 53,00 | 53,00 | 2,91% | 45,00 |
| 24.03.2026 | 52,50 | 52,50 | 50,50 | 51,50 | -4,63% | 514,00 |
| 23.03.2026 | 53,50 | 54,00 | 53,00 | 54,00 | 0,00% | 280,00 |
| 20.03.2026 | 54,00 | 54,00 | 54,00 | 54,00 | -0,46% | 1,00 |
| 19.03.2026 | 54,50 | 54,75 | 53,25 | 54,25 | 1,40% | - |
| 18.03.2026 | 54,50 | 54,50 | 53,50 | 53,50 | -0,93% | 56,00 |
| 17.03.2026 | 51,00 | 55,00 | 51,00 | 54,00 | 3,85% | 612,00 |
| 16.03.2026 | 52,00 | 54,00 | 51,50 | 52,00 | 0,00% | 298,00 |
| 13.03.2026 | 52,00 | 52,00 | 52,00 | 52,00 | 0,00% | 60,00 |
| 12.03.2026 | 54,50 | 54,50 | 52,00 | 52,00 | -5,45% | 70,00 |
| 11.03.2026 | 55,00 | 55,00 | 55,00 | 55,00 | 0,00% | 10,00 |
| 10.03.2026 | 53,50 | 55,00 | 53,00 | 55,00 | 5,77% | 400,00 |
| 09.03.2026 | 52,00 | 52,00 | 52,00 | 52,00 | -2,35% | 1,00 |
| 06.03.2026 | 53,50 | 54,00 | 53,00 | 53,25 | 0,00% | - |
| 05.03.2026 | 53,50 | 54,00 | 52,25 | 53,25 | 1,43% | - |
| 04.03.2026 | 52,50 | 52,50 | 52,50 | 52,50 | 0,48% | 68,00 |
| 03.03.2026 | 52,25 | 52,75 | 51,25 | 52,25 | -0,48% | - |
| 02.03.2026 | 52,00 | 53,00 | 52,00 | 52,50 | 0,00% | 80,00 |
| 27.02.2026 | 52,75 | 53,00 | 52,25 | 52,50 | -1,87% | - |
| 26.02.2026 | 53,00 | 53,50 | 53,00 | 53,50 | -8,55% | 57,00 |
| 25.02.2026 | 58,50 | 58,50 | 58,50 | 58,50 | -0,85% | 34,00 |
| 24.02.2026 | 59,00 | 59,00 | 59,00 | 59,00 | 2,61% | 55,00 |
| 23.02.2026 | 57,50 | 57,50 | 57,50 | 57,50 | 0,00% | 60,00 |
| 20.02.2026 | 57,50 | 58,00 | 57,50 | 57,50 | 0,88% | 242,00 |
| 19.02.2026 | 57,50 | 57,50 | 56,50 | 57,00 | 0,00% | 2.130,00 |
| 18.02.2026 | 57,00 | 57,00 | 57,00 | 57,00 | 0,88% | 320,00 |
| 17.02.2026 | 56,00 | 56,50 | 56,00 | 56,50 | 1,80% | 266,00 |
| 16.02.2026 | 56,50 | 56,50 | 55,50 | 55,50 | -0,89% | 28,00 |
| 13.02.2026 | 55,50 | 56,00 | 55,50 | 56,00 | 1,82% | 335,00 |
| 12.02.2026 | 57,00 | 57,00 | 55,00 | 55,00 | -1,79% | 1.157,00 |
| 11.02.2026 | 55,00 | 56,00 | 53,00 | 56,00 | 5,66% | 6.493,00 |
| 10.02.2026 | 53,00 | 53,00 | 53,00 | 53,00 | 0,47% | 96,00 |
| 09.02.2026 | 52,50 | 52,75 | 51,75 | 52,75 | 0,48% | - |
| 06.02.2026 | 52,50 | 53,00 | 50,50 | 52,50 | 2,94% | 125,00 |
| 05.02.2026 | 51,00 | 51,00 | 51,00 | 51,00 | -4,67% | 50,00 |
| 04.02.2026 | 53,50 | 53,50 | 53,50 | 53,50 | -0,93% | 148,00 |
| 03.02.2026 | 55,50 | 55,50 | 54,00 | 54,00 | -1,82% | 75,00 |
| 02.02.2026 | 55,00 | 55,00 | 55,00 | 55,00 | 0,46% | 391,00 |
| 30.01.2026 | 54,50 | 54,75 | 54,25 | 54,75 | 0,92% | - |
| 29.01.2026 | 54,50 | 55,25 | 53,75 | 54,25 | 0,00% | - |
| 28.01.2026 | 53,50 | 54,25 | 53,50 | 54,25 | -0,91% | - |
| 27.01.2026 | 53,25 | 55,25 | 53,00 | 54,75 | 1,86% | - |
| 26.01.2026 | 53,50 | 54,25 | 52,25 | 53,75 | 0,47% | - |
| 23.01.2026 | 53,50 | 53,50 | 53,50 | 53,50 | -2,73% | 22,00 |
| 22.01.2026 | 53,50 | 55,00 | 53,50 | 55,00 | 1,85% | 269,00 |
| 21.01.2026 | 54,50 | 55,00 | 54,00 | 54,00 | 0,93% | 57,00 |
| 20.01.2026 | 52,50 | 54,00 | 52,00 | 53,50 | -0,93% | 912,00 |
| 19.01.2026 | 53,00 | 54,00 | 53,00 | 54,00 | 0,00% | 51,00 |
| 16.01.2026 | 54,50 | 54,50 | 54,00 | 54,00 | -1,82% | 48,00 |
| 15.01.2026 | 56,00 | 56,00 | 55,00 | 55,00 | -0,90% | 80,00 |
| 14.01.2026 | 54,00 | 55,50 | 54,00 | 55,50 | 3,74% | 431,00 |
| 13.01.2026 | 55,00 | 56,00 | 53,50 | 53,50 | -2,73% | 271,00 |
| 12.01.2026 | 54,00 | 55,00 | 53,00 | 55,00 | 1,85% | 101,00 |
| 09.01.2026 | 55,50 | 55,50 | 54,00 | 54,00 | 0,93% | 20,00 |
| 08.01.2026 | 55,50 | 56,00 | 53,50 | 53,50 | -4,46% | 47,00 |
| 07.01.2026 | 55,00 | 56,00 | 55,00 | 56,00 | 4,19% | 978,00 |
| 06.01.2026 | 52,25 | 53,75 | 52,00 | 53,75 | 5,39% | - |
| 05.01.2026 | 51,50 | 51,50 | 51,00 | 51,00 | -5,56% | 115,00 |
| 02.01.2026 | 53,50 | 55,00 | 53,50 | 54,00 | 1,89% | 132,00 |
| 30.12.2025 | 52,00 | 53,50 | 52,00 | 53,00 | 0,95% | 812,00 |
| 29.12.2025 | 54,00 | 54,00 | 52,50 | 52,50 | -1,87% | 237,00 |
| 23.12.2025 | 55,50 | 57,00 | 53,50 | 53,50 | -7,76% | 5.119,00 |
| 22.12.2025 | 54,00 | 60,00 | 53,50 | 58,00 | 8,41% | 2.430,00 |
| 19.12.2025 | 53,50 | 53,50 | 53,00 | 53,50 | -0,93% | 470,00 |
| 18.12.2025 | 52,50 | 54,00 | 52,00 | 54,00 | 5,88% | 1.112,00 |
| 17.12.2025 | 53,50 | 55,00 | 51,00 | 51,00 | -0,97% | 663,00 |
| 16.12.2025 | 53,50 | 53,50 | 51,50 | 51,50 | -3,74% | 279,00 |
| 15.12.2025 | 54,50 | 55,50 | 53,50 | 53,50 | 2,88% | 633,00 |
| 12.12.2025 | 51,50 | 52,00 | 51,50 | 52,00 | 0,97% | 96,00 |
| 11.12.2025 | 51,00 | 52,00 | 51,00 | 51,50 | -0,96% | 166,00 |
| 10.12.2025 | 52,00 | 52,00 | 52,00 | 52,00 | -2,80% | 219,00 |
| 09.12.2025 | 55,50 | 55,50 | 53,00 | 53,50 | -3,60% | 292,00 |